Time;durP1;ratioP1;P1;durP2;ratioP2;P2;SDS_P1;SDS_P2;PMS_P1;PMS_P2;Temp;Humidity;BMP_temperature;BMP_pressure;BME280_temperature;BME280_humidity;BME280_pressure;Samples;Min_cycle;Max_cycle;Signal;HPM_P1;HPM_P2
2022/03/28 00:01:25;;;;;;;21.85;11.57;;;;;;;2.09;94.72;99653.66;4188426;28;20114;-71
2022/03/28 00:03:25;;;;;;;20.08;11.70;;;;;;;2.03;95.23;99655.63;4188413;28;20767;-71
2022/03/28 00:05:26;;;;;;;22.83;12.45;;;;;;;1.97;95.18;99659.53;4188409;28;20218;-71
2022/03/28 00:07:26;;;;;;;24.92;12.07;;;;;;;1.94;95.60;99665.56;4190467;28;20082;-71
2022/03/28 00:09:27;;;;;;;23.52;12.50;;;;;;;1.89;95.56;99658.25;4187594;28;21014;-71
2022/03/28 00:11:27;;;;;;;24.52;12.85;;;;;;;1.86;95.27;99652.56;4188095;28;20223;-71
2022/03/28 00:13:27;;;;;;;19.98;11.27;;;;;;;1.82;95.30;99657.81;4188332;28;20045;-71
2022/03/28 00:15:28;;;;;;;19.95;11.57;;;;;;;1.77;95.30;99651.59;4189639;28;20036;-71
2022/03/28 00:17:31;;;;;;;19.88;12.57;;;;;;;1.75;95.02;99653.81;4189014;28;20036;-71
2022/03/28 00:19:32;;;;;;;25.20;12.57;;;;;;;1.68;95.07;99652.25;4189763;28;20104;-71
2022/03/28 00:21:32;;;;;;;22.98;11.73;;;;;;;1.68;96.77;99649.50;4189156;28;20123;-71
2022/03/28 00:23:32;;;;;;;28.63;11.95;;;;;;;1.64;97.18;99645.72;4189749;28;20471;-71
2022/03/28 00:25:35;;;;;;;30.27;12.50;;;;;;;1.65;97.64;99652.00;4187351;28;20037;-71
2022/03/28 00:27:35;;;;;;;;;;;;;;;1.64;98.08;99645.72;4189317;28;20121;-71
2022/03/28 00:29:36;;;;;;;28.35;12.82;;;;;;;1.64;97.42;99656.63;4188512;28;20022;-71
2022/03/28 00:31:37;;;;;;;23.65;13.25;;;;;;;1.61;96.74;99643.59;4188501;28;20047;-71
2022/03/28 00:33:37;;;;;;;26.48;14.07;;;;;;;1.62;96.27;99645.22;4187374;28;20075;-71
2022/03/28 00:35:37;;;;;;;25.02;12.57;;;;;;;1.62;96.41;99637.03;4187699;28;20045;-71
2022/03/28 00:37:39;;;;;;;23.85;13.07;;;;;;;1.61;96.84;99640.06;4186950;28;20037;-71
2022/03/28 00:39:39;;;;;;;24.20;12.97;;;;;;;1.55;96.26;99642.00;4188236;28;20123;-71
2022/03/28 00:41:40;;;;;;;22.17;13.23;;;;;;;1.43;96.87;99643.53;4189876;28;20547;-71
2022/03/28 00:43:54;;;;;;;24.48;12.93;;;;;;;1.31;97.27;99633.81;4187333;28;20044;-71
2022/03/28 00:45:54;;;;;;;23.05;13.57;;;;;;;1.25;97.47;99635.00;4187684;28;20040;-71
2022/03/28 00:47:55;;;;;;;20.75;11.65;;;;;;;1.18;97.61;99628.25;4187111;28;20086;-71
2022/03/28 00:49:55;;;;;;;22.50;11.73;;;;;;;1.09;97.41;99626.16;4191874;28;20125;-71
2022/03/28 00:51:55;;;;;;;20.88;11.20;;;;;;;1.08;97.14;99621.00;4188229;28;20051;-71
2022/03/28 00:53:56;;;;;;;21.23;11.18;;;;;;;1.05;97.22;99616.91;4188724;28;20052;-71
2022/03/28 00:55:56;;;;;;;25.85;12.13;;;;;;;1.05;97.66;99613.38;4188404;28;20172;-71
2022/03/28 00:57:57;;;;;;;22.95;12.07;;;;;;;1.05;97.25;99618.84;4187142;28;20040;-71
2022/03/28 00:59:58;;;;;;;22.45;11.35;;;;;;;1.02;96.77;99616.69;4187830;28;20123;-71
2022/03/28 01:01:59;;;;;;;20.67;11.50;;;;;;;0.99;96.98;99612.59;4187330;28;20781;-71
2022/03/28 01:04:00;;;;;;;20.95;10.30;;;;;;;0.94;96.59;99615.41;4191170;28;20041;-71
2022/03/28 01:06:00;;;;;;;21.85;11.57;;;;;;;0.90;96.77;99610.78;4187859;28;20452;-71
2022/03/28 01:08:01;;;;;;;19.40;10.80;;;;;;;0.86;97.13;99609.75;4185534;28;20339;-71
2022/03/28 01:10:02;;;;;;;19.42;11.45;;;;;;;0.80;97.89;99612.50;4187380;28;20039;-71
2022/03/28 01:12:04;;;;;;;21.80;11.85;;;;;;;0.77;98.16;99610.38;4189944;28;20479;-71
2022/03/28 01:14:05;;;;;;;20.40;11.27;;;;;;;0.78;97.24;99609.28;4187989;28;20111;-71
2022/03/28 01:16:06;;;;;;;22.25;12.32;;;;;;;0.80;96.21;99607.06;4188839;28;20568;-71
2022/03/28 01:18:07;;;;;;;23.85;11.75;;;;;;;0.81;95.55;99596.97;4190570;28;20032;-71
2022/03/28 01:20:08;;;;;;;25.88;12.40;;;;;;;0.82;96.86;99602.13;4186983;28;20028;-71
2022/03/28 01:22:09;;;;;;;23.77;13.23;;;;;;;0.84;98.15;99604.59;4186430;28;20021;-71
2022/03/28 01:24:09;;;;;;;26.02;11.95;;;;;;;0.82;98.85;99604.06;4189862;28;20324;-71
2022/03/28 01:26:12;;;;;;;22.70;13.05;;;;;;;0.81;98.91;99594.25;4187783;28;20120;-71
2022/03/28 01:28:12;;;;;;;21.33;11.90;;;;;;;0.82;97.68;99598.59;4187662;28;20047;-71
2022/03/28 01:30:12;;;;;;;23.73;13.27;;;;;;;0.85;96.37;99595.31;4186847;28;20372;-71
2022/03/28 01:32:13;;;;;;;23.17;11.60;;;;;;;0.86;95.49;99594.22;4188919;28;20032;-71
2022/03/28 01:34:21;;;;;;;22.17;12.68;;;;;;;0.83;97.39;99600.25;4186309;28;20051;-71
2022/03/28 01:36:24;;;;;;;20.08;11.88;;;;;;;0.86;96.05;99588.78;4186330;28;20137;-71
2022/03/28 01:38:25;;;;;;;26.30;13.20;;;;;;;0.85;96.92;99592.59;4186436;28;20531;-71
2022/03/28 01:40:26;;;;;;;20.73;11.90;;;;;;;0.85;97.45;99578.97;4186198;28;20458;-71
2022/03/28 01:42:26;;;;;;;35.05;15.85;;;;;;;0.78;99.13;99575.78;4185636;28;20040;-71
2022/03/28 01:44:26;;;;;;;25.60;14.40;;;;;;;0.69;99.74;99577.50;4187896;28;20082;-71
2022/03/28 01:46:27;;;;;;;26.15;14.45;;;;;;;0.63;100.00;99575.91;4193099;28;20036;-71
2022/03/28 01:48:27;;;;;;;29.60;15.30;;;;;;;0.59;100.00;99572.94;4186361;28;20040;-71
2022/03/28 01:50:27;;;;;;;26.02;14.75;;;;;;;0.57;100.00;99573.22;4187072;28;20037;-71
2022/03/28 01:52:28;;;;;;;28.77;14.65;;;;;;;0.55;100.00;99577.31;4191899;28;20047;-71
2022/03/28 01:54:28;;;;;;;27.83;14.68;;;;;;;0.55;100.00;99575.41;4189136;28;20037;-71
2022/03/28 01:56:29;;;;;;;27.50;15.20;;;;;;;0.48;99.60;99577.66;4186094;28;20067;-71
2022/03/28 01:58:29;;;;;;;28.67;14.98;;;;;;;0.42;100.00;99567.91;4189199;28;20051;-71
2022/03/28 02:00:32;;;;;;;25.80;13.90;;;;;;;0.38;100.00;99582.38;4196664;28;20040;-71
2022/03/28 02:02:32;;;;;;;;;;;;;;;0.35;100.00;99570.16;4195765;28;20048;-71
2022/03/28 02:04:32;;;;;;;26.33;12.68;;;;;;;0.36;100.00;99574.50;4190823;28;19916;-71
2022/03/28 02:06:33;;;;;;;31.60;15.90;;;;;;;0.37;100.00;99569.84;4192770;28;20048;-71
2022/03/28 02:08:34;;;;;;;26.50;14.32;;;;;;;0.40;99.13;99561.91;4191481;28;20056;-71
2022/03/28 02:10:35;;;;;;;23.65;14.15;;;;;;;0.35;98.55;99556.53;4192333;28;20449;-71
2022/03/28 02:12:35;;;;;;;26.95;13.80;;;;;;;0.30;99.32;99556.56;4189366;28;20226;-71
2022/03/28 02:14:35;;;;;;;31.38;15.57;;;;;;;0.32;100.00;99559.00;4192558;28;20517;-71
2022/03/28 02:16:36;;;;;;;31.48;15.90;;;;;;;0.26;99.12;99550.06;4186342;28;20088;-71
2022/03/28 02:18:38;;;;;;;31.85;16.58;;;;;;;0.23;99.22;99556.88;4193993;28;20384;-71
2022/03/28 02:20:40;;;;;;;31.70;16.63;;;;;;;0.21;99.81;99561.00;4192543;28;20368;-71
2022/03/28 02:22:42;;;;;;;31.90;15.73;;;;;;;0.14;100.00;99553.13;4193700;28;20041;-71
2022/03/28 02:24:42;;;;;;;38.75;16.75;;;;;;;0.13;100.00;99550.72;4195885;28;20095;-72
2022/03/28 02:26:43;;;;;;;28.48;15.80;;;;;;;0.13;100.00;99548.81;4194216;28;20476;-71
2022/03/28 02:28:43;;;;;;;29.73;14.43;;;;;;;0.21;99.19;99550.09;4195496;28;20041;-71
2022/03/28 02:30:43;;;;;;;31.33;14.93;;;;;;;0.23;97.43;99548.72;4195973;28;20480;-72
2022/03/28 02:32:44;;;;;;;30.65;15.13;;;;;;;0.24;96.89;99542.16;4196922;28;20045;-72
2022/03/28 02:34:44;;;;;;;27.80;13.18;;;;;;;0.22;96.12;99541.66;4194169;28;20040;-72
2022/03/28 02:36:45;;;;;;;29.08;13.50;;;;;;;0.20;95.41;99534.88;4196494;28;20277;-72
2022/03/28 02:38:45;;;;;;;25.83;13.85;;;;;;;0.18;95.56;99532.44;4195704;28;20044;-72
2022/03/28 02:40:45;;;;;;;23.92;13.40;;;;;;;0.15;95.59;99532.19;4198510;28;20058;-72
2022/03/28 02:42:46;;;;;;;29.27;13.98;;;;;;;0.10;95.81;99521.34;4195896;28;20411;-72
2022/03/28 02:44:46;;;;;;;27.15;13.48;;;;;;;0.06;96.18;99514.84;4198561;28;20290;-72
2022/03/28 02:46:46;;;;;;;34.35;14.98;;;;;;;0.06;96.23;99523.00;4196789;28;20117;-72
2022/03/28 02:48:47;;;;;;;27.35;14.18;;;;;;;0.04;96.20;99514.31;4193951;28;20056;-71
2022/03/28 02:50:48;;;;;;;27.77;14.45;;;;;;;0.07;96.43;99521.91;4195496;28;20814;-72
2022/03/28 02:52:48;;;;;;;29.48;13.85;;;;;;;0.11;96.09;99512.09;4195294;28;20097;-72
2022/03/28 02:54:49;;;;;;;28.58;14.18;;;;;;;0.17;95.81;99514.50;4193801;28;20048;-71
2022/03/28 02:56:49;;;;;;;28.92;14.40;;;;;;;0.14;94.36;99506.06;4196253;28;20044;-71
2022/03/28 02:58:49;;;;;;;23.30;13.07;;;;;;;0.09;95.05;99504.22;4196448;28;20040;-72
2022/03/28 03:00:50;;;;;;;22.80;13.40;;;;;;;0.12;95.51;99503.63;4196730;28;20403;-71
2022/03/28 03:02:51;;;;;;;27.60;14.88;;;;;;;0.20;94.09;99505.75;4195154;28;20044;-72
2022/03/28 03:04:51;;;;;;;25.17;13.77;;;;;;;0.18;93.39;99504.41;4202284;28;20043;-72
2022/03/28 03:06:52;;;;;;;29.02;14.45;;;;;;;0.14;92.87;99496.00;4190937;28;20028;-72
2022/03/28 03:08:52;;;;;;;21.10;12.82;;;;;;;0.12;93.33;99498.19;4195400;28;20530;-72
2022/03/28 03:10:52;;;;;;;25.27;13.30;;;;;;;0.06;94.72;99484.91;4192535;28;20369;-72
2022/03/28 03:12:53;;;;;;;21.65;12.60;;;;;;;0.05;95.82;99492.25;4198706;28;20048;-72
2022/03/28 03:14:53;;;;;;;29.10;12.75;;;;;;;-0.04;96.63;99486.63;4194523;28;20044;-71
2022/03/28 03:16:53;;;;;;;26.77;13.75;;;;;;;-0.08;97.30;99491.00;4194428;28;20310;-72
2022/03/28 03:18:54;;;;;;;27.60;14.05;;;;;;;-0.09;96.86;99480.38;4192885;28;20035;-72
2022/03/28 03:20:55;;;;;;;25.27;13.75;;;;;;;-0.12;97.03;99479.06;4191010;28;20036;-72
2022/03/28 03:22:55;;;;;;;24.23;13.63;;;;;;;-0.07;96.69;99480.94;4195851;28;20535;-72
2022/03/28 03:24:56;;;;;;;28.15;15.13;;;;;;;-0.12;95.95;99476.34;4191600;28;20053;-72
2022/03/28 03:26:56;;;;;;;28.95;16.15;;;;;;;-0.16;95.99;99471.75;4192276;28;20202;-72
2022/03/28 03:28:58;;;;;;;37.38;18.48;;;;;;;-0.20;96.11;99468.78;4193774;28;20094;-72
2022/03/28 03:30:58;;;;;;;35.20;17.27;;;;;;;-0.24;96.93;99469.66;4191615;28;20839;-72
2022/03/28 03:32:59;;;;;;;30.92;15.88;;;;;;;-0.29;98.33;99465.03;4193153;28;20050;-71
2022/03/28 03:34:59;;;;;;;28.40;16.05;;;;;;;-0.35;99.60;99466.97;4193974;28;20123;-72
2022/03/28 03:37:00;;;;;;;27.13;15.85;;;;;;;-0.37;100.00;99469.16;4196956;28;20106;-72
2022/03/28 03:39:02;;;;;;;24.67;13.85;;;;;;;-0.36;100.00;99459.91;4191183;28;20342;-72
2022/03/28 03:41:02;;;;;;;30.85;15.25;;;;;;;-0.39;100.00;99470.56;4196181;28;20162;-72
2022/03/28 03:43:02;;;;;;;26.92;14.63;;;;;;;-0.41;100.00;99470.84;4196645;28;20067;-72
2022/03/28 03:45:05;;;;;;;26.58;13.70;;;;;;;-0.41;100.00;99462.69;4195188;28;20238;-72
2022/03/28 03:47:05;;;;;;;35.72;15.35;;;;;;;-0.40;100.00;99472.47;4194281;28;20476;-72
2022/03/28 03:49:06;;;;;;;31.63;16.05;;;;;;;-0.39;100.00;99471.34;4194611;28;20040;-72
2022/03/28 03:51:06;;;;;;;28.08;15.82;;;;;;;-0.41;99.99;99476.28;4192099;28;20103;-72
2022/03/28 03:53:07;;;;;;;29.65;16.00;;;;;;;-0.45;99.73;99474.38;4196480;28;20044;-72
2022/03/28 03:55:08;;;;;;;30.35;14.77;;;;;;;-0.53;100.00;99467.63;4192485;28;20101;-72
2022/03/28 03:57:09;;;;;;;29.20;16.45;;;;;;;-0.55;100.00;99467.09;4192834;28;20044;-72
2022/03/28 03:59:09;;;;;;;29.88;14.63;;;;;;;-0.59;100.00;99463.31;4193332;28;20046;-72
2022/03/28 04:01:10;;;;;;;31.40;15.45;;;;;;;-0.63;100.00;99454.09;4193976;28;20036;-71
2022/03/28 04:03:10;;;;;;;29.75;14.73;;;;;;;-0.67;100.00;99462.00;4193674;28;20136;-72
2022/03/28 04:05:10;;;;;;;26.55;14.82;;;;;;;-0.73;100.00;99460.41;4192673;28;20032;-72
2022/03/28 04:07:11;;;;;;;25.48;15.15;;;;;;;-0.73;100.00;99462.31;4193384;28;20369;-72
2022/03/28 04:09:11;;;;;;;21.80;13.43;;;;;;;-0.75;100.00;99459.88;4196126;28;20083;-72
2022/03/28 04:11:12;;;;;;;25.40;14.88;;;;;;;-0.77;99.34;99459.34;4195722;28;20123;-72
2022/03/28 04:13:14;;;;;;;25.73;13.98;;;;;;;-0.72;99.28;99472.91;4193537;28;20048;-72
2022/03/28 04:15:14;;;;;;;24.50;13.82;;;;;;;-0.69;100.00;99457.94;4193545;28;20127;-72
2022/03/28 04:17:14;;;;;;;27.27;14.02;;;;;;;-0.73;100.00;99459.59;4196573;28;20544;-72
2022/03/28 04:19:15;;;;;;;27.45;14.00;;;;;;;-0.75;100.00;99456.34;4194585;28;20048;-72
2022/03/28 04:21:15;;;;;;;27.58;15.13;;;;;;;-0.77;100.00;99459.34;4195350;28;20075;-72
2022/03/28 04:23:15;;;;;;;25.02;14.00;;;;;;;-0.79;100.00;99450.66;4194275;28;20056;-72
2022/03/28 04:25:16;;;;;;;26.95;14.38;;;;;;;-0.81;100.00;99447.41;4194214;28;20050;-72
2022/03/28 04:27:16;;;;;;;26.45;13.15;;;;;;;-0.80;100.00;99443.59;4189607;28;20121;-72
2022/03/28 04:29:16;;;;;;;23.85;14.10;;;;;;;-0.80;100.00;99449.03;4192189;28;20048;-72
2022/03/28 04:31:17;;;;;;;25.00;14.13;;;;;;;-0.82;100.00;99440.34;4191573;28;20486;-72
2022/03/28 04:33:18;;;;;;;28.58;15.07;;;;;;;-0.86;100.00;99437.38;4194754;28;20050;-72
2022/03/28 04:35:19;;;;;;;24.55;13.88;;;;;;;-0.88;100.00;99445.00;4195600;28;20039;-72
2022/03/28 04:37:19;;;;;;;26.77;14.30;;;;;;;-0.89;100.00;99435.22;4191710;28;20128;-72
2022/03/28 04:39:20;;;;;;;26.55;14.63;;;;;;;-0.85;100.00;99440.91;4192152;28;20132;-72
2022/03/28 04:41:20;;;;;;;26.55;13.68;;;;;;;-0.82;99.96;99434.94;4194292;28;20422;-72
2022/03/28 04:43:21;;;;;;;27.08;15.25;;;;;;;-0.75;98.42;99440.03;4192741;28;20330;-72
2022/03/28 04:45:21;;;;;;;27.90;14.27;;;;;;;-0.73;97.10;99432.44;4190982;28;20072;-72
2022/03/28 04:47:21;;;;;;;26.95;13.93;;;;;;;-0.81;97.56;99433.84;4189773;28;20182;-72
2022/03/28 04:49:22;;;;;;;28.83;13.10;;;;;;;-0.88;98.25;99430.59;4194058;28;20048;-72
2022/03/28 04:51:22;;;;;;;26.42;13.65;;;;;;;-0.94;99.42;99418.94;4194909;28;20125;-72
2022/03/28 04:53:22;;;;;;;28.95;13.63;;;;;;;-1.00;100.00;99424.66;4194949;28;20077;-72
2022/03/28 04:55:23;;;;;;;24.58;12.80;;;;;;;-1.00;100.00;99421.94;4129168;28;20076;-71
2022/03/28 04:57:23;;;;;;;26.58;13.85;;;;;;;-1.03;100.00;99423.34;4186562;28;20047;-71
2022/03/28 04:59:23;;;;;;;24.65;13.65;;;;;;;-1.00;100.00;99424.66;4196291;28;20068;-71
2022/03/28 05:01:24;;;;;;;27.67;13.98;;;;;;;-1.01;100.00;99420.34;4194385;28;20063;-71
2022/03/28 05:03:24;;;;;;;24.10;13.20;;;;;;;-0.98;100.00;99425.22;4189286;28;20127;-71
2022/03/28 05:05:25;;;;;;;32.15;14.65;;;;;;;-1.00;100.00;99416.53;4194745;28;20044;-72
2022/03/28 05:07:26;;;;;;;31.08;14.98;;;;;;;-1.00;100.00;99420.03;4192647;28;20376;-72
2022/03/28 05:09:26;;;;;;;25.50;15.50;;;;;;;-0.99;100.00;99415.47;4195173;28;20080;-72
2022/03/28 05:11:28;;;;;;;27.83;16.73;;;;;;;-0.98;100.00;99417.06;4193571;28;20068;-72
2022/03/28 05:13:28;;;;;;;27.02;15.98;;;;;;;-0.93;100.00;99411.59;4195400;28;20173;-72
2022/03/28 05:15:28;;;;;;;23.33;14.60;;;;;;;-0.89;100.00;99421.63;4194782;28;20392;-71
2022/03/28 05:17:30;;;;;;;24.23;13.60;;;;;;;-0.87;100.00;99421.34;4190278;28;20072;-72
2022/03/28 05:19:31;;;;;;;27.80;15.65;;;;;;;-0.89;100.00;99416.22;4196084;28;20040;-71
2022/03/28 05:21:31;;;;;;;25.10;13.35;;;;;;;-0.90;100.00;99417.31;4191001;28;20090;-72
2022/03/28 05:23:32;;;;;;;26.08;13.25;;;;;;;-0.92;100.00;99416.75;4196321;28;20496;-72
2022/03/28 05:25:32;;;;;;;25.83;13.40;;;;;;;-0.96;100.00;99410.25;4197971;28;20072;-71
2022/03/28 05:27:41;;;;;;;27.08;13.55;;;;;;;-0.95;100.00;99411.06;4194875;28;20149;-71
2022/03/28 05:29:42;;;;;;;30.58;13.43;;;;;;;-0.90;100.00;99421.94;4196958;28;20649;-72
2022/03/28 05:31:43;;;;;;;24.77;13.25;;;;;;;-0.88;100.00;99419.72;4195169;28;20040;-72
2022/03/28 05:33:43;;;;;;;28.73;13.80;;;;;;;-0.86;100.00;99407.47;4191614;28;20131;-72
2022/03/28 05:35:44;;;;;;;28.65;13.15;;;;;;;-0.83;100.00;99410.72;4194822;28;20359;-72
2022/03/28 05:37:44;;;;;;;26.85;13.50;;;;;;;-0.86;100.00;99401.25;4190078;28;20424;-72
2022/03/28 05:39:46;;;;;;;24.45;13.23;;;;;;;-0.85;100.00;99397.44;4196917;28;20692;-72
2022/03/28 05:41:46;;;;;;;27.05;13.02;;;;;;;-0.80;100.00;99411.00;4191099;28;20083;-72
2022/03/28 05:43:47;;;;;;;23.80;12.80;;;;;;;-0.76;100.00;99401.16;4195805;28;20091;-72
2022/03/28 05:45:47;;;;;;;35.97;18.02;;;;;;;-0.76;100.00;99405.78;4195133;28;20051;-71
2022/03/28 05:47:47;;;;;;;38.78;17.35;;;;;;;-0.78;100.00;99408.00;4190685;28;20043;-71
2022/03/28 05:49:48;;;;;;;33.83;17.63;;;;;;;-0.77;100.00;99396.84;4199187;28;20443;-71
2022/03/28 05:51:49;;;;;;;31.02;15.43;;;;;;;-0.72;100.00;99401.44;4193562;28;20071;-71
2022/03/28 05:53:50;;;;;;;38.17;15.68;;;;;;;-0.74;100.00;99396.28;4193404;28;20480;-71
2022/03/28 05:55:50;;;;;;;85.10;20.30;;;;;;;-0.71;100.00;99401.16;4193403;28;20452;-71
2022/03/28 05:57:51;;;;;;;33.05;15.63;;;;;;;-0.70;100.00;99402.78;4193094;28;20461;-72
2022/03/28 05:59:51;;;;;;;39.58;16.95;;;;;;;-0.68;100.00;99406.00;4198274;28;20054;-72
2022/03/28 06:01:51;;;;;;;57.10;17.25;;;;;;;-0.67;100.00;99402.19;4193455;28;20028;-72
2022/03/28 06:03:52;;;;;;;32.78;16.20;;;;;;;-0.66;100.00;99406.56;4196981;28;20131;-71
2022/03/28 06:05:52;;;;;;;34.33;15.50;;;;;;;-0.64;100.00;99404.38;4197617;28;20081;-72
2022/03/28 06:07:52;;;;;;;25.88;13.82;;;;;;;-0.64;100.00;99398.13;4195752;28;20047;-72
2022/03/28 06:09:53;;;;;;;30.83;15.55;;;;;;;-0.63;100.00;99395.13;4199164;28;20044;-71
2022/03/28 06:11:53;;;;;;;32.53;16.35;;;;;;;-0.57;100.00;99396.72;4198402;28;20036;-72
2022/03/28 06:13:56;;;;;;;28.23;14.45;;;;;;;-0.51;100.00;99402.09;4192889;28;20052;-72
2022/03/28 06:15:58;;;;;;;45.60;15.32;;;;;;;-0.47;100.00;99403.97;4194966;28;20049;-72
2022/03/28 06:17:58;;;;;;;26.77;13.55;;;;;;;-0.42;100.00;99394.97;4195529;28;20040;-72
2022/03/28 06:20:02;;;;;;;29.88;13.85;;;;;;;-0.35;100.00;99401.72;4196742;28;20033;-72
2022/03/28 06:22:03;;;;;;;33.78;16.23;;;;;;;-0.29;100.00;99388.88;4199296;28;20302;-72
2022/03/28 06:24:04;;;;;;;28.13;14.18;;;;;;;-0.23;100.00;99398.63;4191293;28;20128;-71
2022/03/28 06:26:04;;;;;;;26.95;15.77;;;;;;;-0.13;100.00;99395.81;4196513;28;20062;-71
2022/03/28 06:28:05;;;;;;;28.17;15.60;;;;;;;-0.06;100.00;99396.31;4196915;28;20447;-72
2022/03/28 06:30:06;;;;;;;29.27;15.50;;;;;;;0.00;100.00;99397.09;4194792;28;20079;-72
2022/03/28 06:32:06;;;;;;;23.70;13.95;;;;;;;0.07;100.00;99389.38;4200492;28;20036;-72
2022/03/28 06:34:07;;;;;;;25.80;13.77;;;;;;;0.15;100.00;99394.19;4197237;28;20039;-72
2022/03/28 06:36:08;;;;;;;31.20;16.33;;;;;;;0.23;100.00;99393.56;4196192;28;20044;-72
2022/03/28 06:38:08;;;;;;;25.70;14.82;;;;;;;0.31;100.00;99385.88;4191498;28;20050;-72
2022/03/28 06:40:10;;;;;;;23.80;13.65;;;;;;;0.43;100.00;99381.69;4196174;28;20181;-72
2022/03/28 06:42:10;;;;;;;24.20;14.48;;;;;;;0.53;100.00;99383.47;4197230;28;20035;-72
2022/03/28 06:44:11;;;;;;;24.40;13.88;;;;;;;0.62;100.00;99379.00;4195508;28;20032;-72
2022/03/28 06:46:13;;;;;;;27.80;14.70;;;;;;;0.75;100.00;99377.50;4195839;28;20035;-72
2022/03/28 06:48:13;;;;;;;24.88;12.70;;;;;;;0.82;100.00;99377.94;4194726;28;20037;-72
2022/03/28 06:50:14;;;;;;;25.15;13.70;;;;;;;0.94;100.00;99369.34;4199571;28;20016;-72
2022/03/28 06:52:14;;;;;;;24.63;13.93;;;;;;;1.02;100.00;99369.50;4196487;28;20040;-72
2022/03/28 06:54:16;;;;;;;23.60;13.23;;;;;;;1.15;100.00;99373.41;4196301;28;20028;-72
2022/03/28 06:56:16;;;;;;;23.35;13.32;;;;;;;1.24;100.00;99366.22;4198526;28;20067;-72
2022/03/28 06:58:17;;;;;;;23.35;13.65;;;;;;;1.33;100.00;99360.91;4190965;28;20899;-71
2022/03/28 07:00:18;;;;;;;28.20;14.25;;;;;;;1.43;100.00;99366.19;4195472;28;20028;-72
2022/03/28 07:02:19;;;;;;;27.80;14.73;;;;;;;1.59;100.00;99362.13;4196817;28;20032;-72
2022/03/28 07:04:20;;;;;;;22.77;13.98;;;;;;;1.68;100.00;99356.78;4194083;28;20103;-72
2022/03/28 07:06:21;;;;;;;27.17;14.10;;;;;;;1.79;100.00;99362.88;4196372;28;20172;-72
2022/03/28 07:08:22;;;;;;;22.70;12.98;;;;;;;1.87;100.00;99354.81;4195363;28;20364;-72
2022/03/28 07:10:22;;;;;;;22.27;13.45;;;;;;;1.98;100.00;99352.72;4189263;28;20048;-72
2022/03/28 07:12:25;;;;;;;20.92;12.35;;;;;;;2.05;100.00;99338.69;4194776;28;20123;-72
2022/03/28 07:14:25;;;;;;;;;;;;;;;2.15;100.00;99346.66;4197026;28;20055;-72
2022/03/28 07:16:26;;;;;;;18.73;11.40;;;;;;;2.23;100.00;99335.88;4198497;28;19917;-72
2022/03/28 07:18:26;;;;;;;24.75;12.57;;;;;;;2.33;100.00;99329.41;4198280;28;20217;-72
2022/03/28 07:20:29;;;;;;;22.60;13.07;;;;;;;2.49;100.00;99330.75;4196246;28;20476;-72
2022/03/28 07:22:30;;;;;;;20.30;11.82;;;;;;;2.59;100.00;99331.66;4195493;28;20476;-72
2022/03/28 07:24:30;;;;;;;25.02;13.70;;;;;;;2.68;100.00;99321.63;4197338;28;20100;-72
2022/03/28 07:26:30;;;;;;;21.83;13.20;;;;;;;2.85;100.00;99320.97;4193640;28;20504;-72
2022/03/28 07:28:31;;;;;;;22.90;13.50;;;;;;;2.96;100.00;99320.44;4195787;28;20060;-72
2022/03/28 07:30:31;;;;;;;23.33;13.02;;;;;;;3.07;100.00;99319.13;4191917;28;20036;-72
2022/03/28 07:32:32;;;;;;;25.33;14.98;;;;;;;3.21;100.00;99319.06;4197542;28;20036;-72
2022/03/28 07:34:34;;;;;;;30.13;16.10;;;;;;;3.39;100.00;99314.53;4196784;28;20540;-72
2022/03/28 07:36:34;;;;;;;27.75;16.10;;;;;;;3.51;100.00;99314.00;4194756;28;20496;-72
2022/03/28 07:38:35;;;;;;;24.48;15.52;;;;;;;3.61;100.00;99308.25;4190738;28;20033;-72
2022/03/28 07:40:38;;;;;;;24.30;14.95;;;;;;;3.74;100.00;99315.59;4198353;28;20040;-72
2022/03/28 07:42:40;;;;;;;;;;;;;;;3.86;100.00;99313.09;4197483;28;20044;-72
2022/03/28 07:44:44;;;;;;;25.55;15.68;;;;;;;3.99;100.00;99311.41;4194753;28;20427;-72
2022/03/28 07:46:45;;;;;;;24.95;14.40;;;;;;;4.16;100.00;99307.94;4193298;28;20473;-72
2022/03/28 07:48:45;;;;;;;27.52;16.25;;;;;;;4.28;100.00;99310.88;4193311;28;20043;-72
2022/03/28 07:50:46;;;;;;;24.17;15.05;;;;;;;4.42;100.00;99308.03;4200115;28;20771;-72
2022/03/28 07:52:50;;;;;;;26.55;15.75;;;;;;;4.59;100.00;99308.09;4196947;28;20109;-72
2022/03/28 07:54:51;;;;;;;24.67;14.93;;;;;;;4.70;100.00;99298.44;4193116;28;20083;-72
2022/03/28 07:56:51;;;;;;;28.52;15.77;;;;;;;4.82;100.00;99297.03;4195526;28;20048;-72
2022/03/28 07:58:51;;;;;;;25.33;14.70;;;;;;;4.89;100.00;99300.91;4194702;28;20044;-72
2022/03/28 08:00:52;;;;;;;27.48;15.43;;;;;;;4.99;100.00;99294.31;4196365;28;20094;-72
2022/03/28 08:02:52;;;;;;;28.88;15.73;;;;;;;5.12;100.00;99298.00;4193674;28;20083;-71
2022/03/28 08:04:53;;;;;;;27.90;15.38;;;;;;;5.20;100.00;99295.25;4194867;28;20041;-71
2022/03/28 08:06:53;;;;;;;27.13;15.80;;;;;;;5.41;100.00;99291.88;4195532;28;20494;-71
2022/03/28 08:08:53;;;;;;;25.08;15.40;;;;;;;5.55;100.00;99303.50;4193137;28;20048;-71
2022/03/28 08:10:54;;;;;;;28.17;15.38;;;;;;;5.67;100.00;99300.09;4195911;28;20135;-71
2022/03/28 08:12:54;;;;;;;29.50;16.05;;;;;;;5.89;100.00;99288.91;4194205;28;20049;-71
2022/03/28 08:14:56;;;;;;;29.73;17.02;;;;;;;6.06;100.00;99288.06;4189140;28;20364;-71
2022/03/28 08:16:56;;;;;;;25.17;15.13;;;;;;;6.16;100.00;99277.53;4193558;28;20048;-72
2022/03/28 08:18:57;;;;;;;28.45;14.90;;;;;;;6.39;100.00;99278.06;4198817;28;20063;-71
2022/03/28 08:20:57;;;;;;;28.85;14.93;;;;;;;6.50;99.92;99280.44;4194575;28;20049;-71
2022/03/28 08:22:59;;;;;;;25.30;14.07;;;;;;;6.55;99.07;99272.03;4197902;28;20383;-71
2022/03/28 08:24:59;;;;;;;26.30;15.67;;;;;;;6.65;100.00;99264.19;4190371;28;20048;-71
2022/03/28 08:26:59;;;;;;;27.63;15.05;;;;;;;6.76;99.88;99267.34;4193160;28;20369;-72
2022/03/28 08:29:00;;;;;;;24.65;14.65;;;;;;;6.86;98.22;99260.66;4196915;28;20050;-71
2022/03/28 08:31:00;;;;;;;30.83;15.10;;;;;;;6.95;97.07;99258.63;4194251;28;20335;-71
2022/03/28 08:33:01;;;;;;;25.73;14.82;;;;;;;7.04;97.30;99251.94;4194309;28;20048;-71
2022/03/28 08:35:02;;;;;;;26.70;14.98;;;;;;;7.23;98.04;99254.22;4190342;28;20134;-71
2022/03/28 08:37:03;;;;;;;24.17;14.32;;;;;;;7.38;97.37;99260.25;4193303;28;20037;-71
2022/03/28 08:39:04;;;;;;;24.85;13.85;;;;;;;7.46;96.73;99260.16;4194257;28;21015;-71
2022/03/28 08:41:11;;;;;;;27.75;13.82;;;;;;;7.52;95.28;99245.03;4195145;28;20043;-72
2022/03/28 08:43:17;;;;;;;26.95;15.10;;;;;;;7.67;96.03;99243.59;4195583;28;20093;-72
2022/03/28 08:45:17;;;;;;;26.35;15.15;;;;;;;8.02;95.83;99246.75;4196214;28;20044;-71
2022/03/28 08:47:19;;;;;;;23.80;14.60;;;;;;;8.07;94.67;99249.31;4195446;28;20086;-71
2022/03/28 08:49:19;;;;;;;22.30;13.65;;;;;;;8.12;94.75;99245.53;4191668;28;20291;-71
2022/03/28 08:51:19;;;;;;;23.63;13.55;;;;;;;8.22;94.41;99241.50;4192005;28;20043;-71
2022/03/28 08:53:20;;;;;;;23.67;14.75;;;;;;;8.41;94.82;99239.00;4195233;28;20386;-71
2022/03/28 08:55:21;;;;;;;25.30;14.70;;;;;;;8.69;97.62;99230.84;4193324;28;20044;-71
2022/03/28 08:57:21;;;;;;;29.15;16.35;;;;;;;8.88;95.12;99239.31;4190482;28;20048;-71
2022/03/28 08:59:22;;;;;;;25.80;14.75;;;;;;;9.12;92.88;99229.38;4198944;28;20036;-71
2022/03/28 09:01:23;;;;;;;20.17;13.82;;;;;;;9.26;91.33;99229.75;4193857;28;20032;-71
2022/03/28 09:03:37;;;;;;;23.17;14.45;;;;;;;9.36;91.34;99236.75;4191493;28;20476;-71
2022/03/28 09:05:39;;;;;;;24.80;14.80;;;;;;;9.43;92.27;99226.72;4194809;28;20518;-71
2022/03/28 09:07:40;;;;;;;21.83;13.73;;;;;;;9.64;91.82;99234.78;4194900;28;20040;-71
2022/03/28 09:09:41;;;;;;;23.17;14.10;;;;;;;9.78;92.27;99226.88;4194899;28;20367;-71
2022/03/28 09:11:45;;;;;;;25.23;15.52;;;;;;;10.11;90.11;99223.78;4196697;28;20039;-71
2022/03/28 09:13:45;;;;;;;24.20;13.82;;;;;;;10.14;88.58;99213.94;4190346;28;20056;-71
2022/03/28 09:15:50;;;;;;;23.02;13.98;;;;;;;10.34;89.66;99220.38;4193859;28;20156;-71
2022/03/28 09:17:57;;;;;;;19.80;13.10;;;;;;;10.59;85.74;99218.22;4193501;28;20098;-71